sensor_id;sensor_type;location;lat;lon;timestamp;P1;durP1;ratioP1;P2;durP2;ratioP2
74799;SDS011;63326;45.088;7.658;2024-02-21T00:01:37;13.38;;;8.63;;
74799;SDS011;63326;45.088;7.658;2024-02-21T00:04:06;17.83;;;8.60;;
74799;SDS011;63326;45.088;7.658;2024-02-21T00:06:34;19.05;;;9.48;;
74799;SDS011;63326;45.088;7.658;2024-02-21T00:09:01;17.52;;;9.15;;
74799;SDS011;63326;45.088;7.658;2024-02-21T00:11:28;15.07;;;7.75;;
74799;SDS011;63326;45.088;7.658;2024-02-21T00:13:55;19.85;;;8.48;;
74799;SDS011;63326;45.088;7.658;2024-02-21T00:16:22;12.75;;;7.32;;
74799;SDS011;63326;45.088;7.658;2024-02-21T00:19:00;11.23;;;6.05;;
74799;SDS011;63326;45.088;7.658;2024-02-21T00:21:33;12.27;;;8.00;;
74799;SDS011;63326;45.088;7.658;2024-02-21T00:24:01;10.48;;;5.80;;
74799;SDS011;63326;45.088;7.658;2024-02-21T00:26:28;12.40;;;6.65;;
74799;SDS011;63326;45.088;7.658;2024-02-21T00:28:54;17.05;;;6.38;;
74799;SDS011;63326;45.088;7.658;2024-02-21T00:31:24;10.68;;;6.38;;
74799;SDS011;63326;45.088;7.658;2024-02-21T00:33:52;16.50;;;8.32;;
74799;SDS011;63326;45.088;7.658;2024-02-21T00:36:21;10.52;;;5.82;;
74799;SDS011;63326;45.088;7.658;2024-02-21T00:38:49;11.82;;;6.00;;
74799;SDS011;63326;45.088;7.658;2024-02-21T00:41:15;12.32;;;6.82;;
74799;SDS011;63326;45.088;7.658;2024-02-21T00:43:48;10.63;;;6.18;;
74799;SDS011;63326;45.088;7.658;2024-02-21T00:46:16;10.98;;;6.10;;
74799;SDS011;63326;45.088;7.658;2024-02-21T00:48:46;13.02;;;5.45;;
74799;SDS011;63326;45.088;7.658;2024-02-21T00:51:13;10.15;;;6.47;;
74799;SDS011;63326;45.088;7.658;2024-02-21T00:53:44;11.05;;;5.30;;
74799;SDS011;63326;45.088;7.658;2024-02-21T00:56:12;9.93;;;5.60;;
74799;SDS011;63326;45.088;7.658;2024-02-21T00:58:57;10.77;;;6.32;;
74799;SDS011;63326;45.088;7.658;2024-02-21T01:01:25;14.23;;;6.80;;
74799;SDS011;63326;45.088;7.658;2024-02-21T01:03:55;12.13;;;6.28;;
74799;SDS011;63326;45.088;7.658;2024-02-21T01:06:24;9.23;;;6.85;;
74799;SDS011;63326;45.088;7.658;2024-02-21T01:08:51;12.65;;;6.85;;
74799;SDS011;63326;45.088;7.658;2024-02-21T01:11:20;12.68;;;6.82;;
74799;SDS011;63326;45.088;7.658;2024-02-21T01:13:48;10.15;;;5.35;;
74799;SDS011;63326;45.088;7.658;2024-02-21T01:16:17;13.50;;;6.88;;
74799;SDS011;63326;45.088;7.658;2024-02-21T01:18:44;12.63;;;6.50;;
74799;SDS011;63326;45.088;7.658;2024-02-21T01:21:11;12.85;;;6.03;;
74799;SDS011;63326;45.088;7.658;2024-02-21T01:23:38;9.38;;;6.57;;
74799;SDS011;63326;45.088;7.658;2024-02-21T01:26:06;8.55;;;5.60;;
74799;SDS011;63326;45.088;7.658;2024-02-21T01:28:35;9.35;;;5.68;;
74799;SDS011;63326;45.088;7.658;2024-02-21T01:31:02;14.35;;;6.63;;
74799;SDS011;63326;45.088;7.658;2024-02-21T01:36:04;11.23;;;5.10;;
74799;SDS011;63326;45.088;7.658;2024-02-21T01:38:33;7.70;;;5.07;;
74799;SDS011;63326;45.088;7.658;2024-02-21T01:41:00;8.05;;;5.30;;
74799;SDS011;63326;45.088;7.658;2024-02-21T01:43:32;8.60;;;4.68;;
74799;SDS011;63326;45.088;7.658;2024-02-21T01:45:59;12.65;;;6.05;;
74799;SDS011;63326;45.088;7.658;2024-02-21T01:48:27;9.43;;;5.97;;
74799;SDS011;63326;45.088;7.658;2024-02-21T01:50:54;10.60;;;5.65;;
74799;SDS011;63326;45.088;7.658;2024-02-21T01:53:36;13.27;;;6.43;;
74799;SDS011;63326;45.088;7.658;2024-02-21T01:56:07;8.82;;;5.20;;
74799;SDS011;63326;45.088;7.658;2024-02-21T02:01:03;9.55;;;5.35;;
74799;SDS011;63326;45.088;7.658;2024-02-21T02:03:30;9.82;;;5.40;;
74799;SDS011;63326;45.088;7.658;2024-02-21T02:05:57;10.57;;;5.95;;
74799;SDS011;63326;45.088;7.658;2024-02-21T02:08:25;6.47;;;4.68;;
74799;SDS011;63326;45.088;7.658;2024-02-21T02:10:55;13.60;;;7.03;;
74799;SDS011;63326;45.088;7.658;2024-02-21T02:13:22;11.93;;;5.60;;
74799;SDS011;63326;45.088;7.658;2024-02-21T02:15:51;14.15;;;6.57;;
74799;SDS011;63326;45.088;7.658;2024-02-21T02:18:20;10.27;;;5.10;;
74799;SDS011;63326;45.088;7.658;2024-02-21T02:20:48;8.98;;;6.18;;
74799;SDS011;63326;45.088;7.658;2024-02-21T02:23:31;7.78;;;5.07;;
74799;SDS011;63326;45.088;7.658;2024-02-21T02:25:58;10.60;;;3.97;;
74799;SDS011;63326;45.088;7.658;2024-02-21T02:28:25;9.48;;;5.82;;
74799;SDS011;63326;45.088;7.658;2024-02-21T02:30:53;16.73;;;5.80;;
74799;SDS011;63326;45.088;7.658;2024-02-21T02:33:23;11.35;;;5.18;;
74799;SDS011;63326;45.088;7.658;2024-02-21T02:35:50;8.82;;;5.05;;
74799;SDS011;63326;45.088;7.658;2024-02-21T02:38:18;9.10;;;5.55;;
74799;SDS011;63326;45.088;7.658;2024-02-21T02:40:49;7.55;;;4.63;;
74799;SDS011;63326;45.088;7.658;2024-02-21T02:43:16;16.42;;;6.25;;
74799;SDS011;63326;45.088;7.658;2024-02-21T02:45:45;11.48;;;4.80;;
74799;SDS011;63326;45.088;7.658;2024-02-21T02:48:12;6.43;;;4.50;;
74799;SDS011;63326;45.088;7.658;2024-02-21T02:50:41;11.52;;;5.53;;
74799;SDS011;63326;45.088;7.658;2024-02-21T02:53:09;8.40;;;5.70;;
74799;SDS011;63326;45.088;7.658;2024-02-21T02:55:37;8.35;;;5.22;;
74799;SDS011;63326;45.088;7.658;2024-02-21T02:58:04;7.07;;;4.45;;
74799;SDS011;63326;45.088;7.658;2024-02-21T03:00:32;9.07;;;4.85;;
74799;SDS011;63326;45.088;7.658;2024-02-21T03:03:02;17.08;;;4.88;;
74799;SDS011;63326;45.088;7.658;2024-02-21T03:05:32;9.07;;;5.45;;
74799;SDS011;63326;45.088;7.658;2024-02-21T03:08:02;9.80;;;5.75;;
74799;SDS011;63326;45.088;7.658;2024-02-21T03:10:33;11.10;;;6.55;;
74799;SDS011;63326;45.088;7.658;2024-02-21T03:13:01;11.27;;;5.75;;
74799;SDS011;63326;45.088;7.658;2024-02-21T03:15:30;8.43;;;4.40;;
74799;SDS011;63326;45.088;7.658;2024-02-21T03:17:57;7.22;;;4.22;;
74799;SDS011;63326;45.088;7.658;2024-02-21T03:20:25;10.45;;;5.93;;
74799;SDS011;63326;45.088;7.658;2024-02-21T03:22:52;7.50;;;5.20;;
74799;SDS011;63326;45.088;7.658;2024-02-21T03:25:19;10.57;;;5.25;;
74799;SDS011;63326;45.088;7.658;2024-02-21T03:27:47;7.78;;;5.45;;
74799;SDS011;63326;45.088;7.658;2024-02-21T03:30:14;11.50;;;6.43;;
74799;SDS011;63326;45.088;7.658;2024-02-21T03:32:44;11.48;;;5.13;;
74799;SDS011;63326;45.088;7.658;2024-02-21T03:35:10;12.55;;;5.45;;
74799;SDS011;63326;45.088;7.658;2024-02-21T03:37:38;10.15;;;5.45;;
74799;SDS011;63326;45.088;7.658;2024-02-21T03:40:06;9.23;;;4.82;;
74799;SDS011;63326;45.088;7.658;2024-02-21T03:42:37;8.32;;;4.07;;
74799;SDS011;63326;45.088;7.658;2024-02-21T03:45:05;10.40;;;4.57;;
74799;SDS011;63326;45.088;7.658;2024-02-21T03:52:28;6.88;;;3.75;;
74799;SDS011;63326;45.088;7.658;2024-02-21T03:54:56;9.82;;;4.13;;
74799;SDS011;63326;45.088;7.658;2024-02-21T03:57:24;9.38;;;4.00;;
74799;SDS011;63326;45.088;7.658;2024-02-21T03:59:52;7.78;;;3.67;;
74799;SDS011;63326;45.088;7.658;2024-02-21T04:02:22;8.52;;;4.05;;
74799;SDS011;63326;45.088;7.658;2024-02-21T04:04:49;10.07;;;4.18;;
74799;SDS011;63326;45.088;7.658;2024-02-21T04:07:17;7.38;;;3.92;;
74799;SDS011;63326;45.088;7.658;2024-02-21T04:09:45;8.90;;;3.90;;
74799;SDS011;63326;45.088;7.658;2024-02-21T04:12:12;9.80;;;3.88;;
74799;SDS011;63326;45.088;7.658;2024-02-21T04:14:39;8.98;;;5.07;;
74799;SDS011;63326;45.088;7.658;2024-02-21T04:17:10;7.47;;;4.60;;
74799;SDS011;63326;45.088;7.658;2024-02-21T04:19:38;11.60;;;4.68;;
74799;SDS011;63326;45.088;7.658;2024-02-21T04:22:05;13.13;;;4.90;;
74799;SDS011;63326;45.088;7.658;2024-02-21T04:24:32;5.63;;;3.63;;
74799;SDS011;63326;45.088;7.658;2024-02-21T04:26:59;5.85;;;3.85;;
74799;SDS011;63326;45.088;7.658;2024-02-21T04:31:54;9.27;;;3.67;;
74799;SDS011;63326;45.088;7.658;2024-02-21T04:34:21;5.60;;;3.20;;
74799;SDS011;63326;45.088;7.658;2024-02-21T04:36:49;8.07;;;4.75;;
74799;SDS011;63326;45.088;7.658;2024-02-21T04:39:16;8.10;;;5.43;;
74799;SDS011;63326;45.088;7.658;2024-02-21T04:41:43;11.05;;;5.20;;
74799;SDS011;63326;45.088;7.658;2024-02-21T04:46:42;8.88;;;4.32;;
74799;SDS011;63326;45.088;7.658;2024-02-21T04:49:09;7.68;;;3.80;;
74799;SDS011;63326;45.088;7.658;2024-02-21T04:51:39;10.10;;;4.28;;
74799;SDS011;63326;45.088;7.658;2024-02-21T04:54:08;7.55;;;4.55;;
74799;SDS011;63326;45.088;7.658;2024-02-21T04:56:35;12.00;;;4.72;;
74799;SDS011;63326;45.088;7.658;2024-02-21T04:59:04;8.65;;;5.20;;
74799;SDS011;63326;45.088;7.658;2024-02-21T05:01:31;11.52;;;4.43;;
74799;SDS011;63326;45.088;7.658;2024-02-21T05:04:00;7.82;;;5.05;;
74799;SDS011;63326;45.088;7.658;2024-02-21T05:06:27;6.53;;;4.15;;
74799;SDS011;63326;45.088;7.658;2024-02-21T05:08:54;12.40;;;5.25;;
74799;SDS011;63326;45.088;7.658;2024-02-21T05:11:21;6.32;;;4.53;;
74799;SDS011;63326;45.088;7.658;2024-02-21T05:13:50;7.75;;;4.65;;
74799;SDS011;63326;45.088;7.658;2024-02-21T05:16:22;5.72;;;3.72;;
74799;SDS011;63326;45.088;7.658;2024-02-21T05:18:50;11.30;;;4.22;;
74799;SDS011;63326;45.088;7.658;2024-02-21T05:21:18;8.30;;;4.35;;
74799;SDS011;63326;45.088;7.658;2024-02-21T05:23:46;9.20;;;3.80;;
74799;SDS011;63326;45.088;7.658;2024-02-21T05:26:21;7.85;;;4.60;;
74799;SDS011;63326;45.088;7.658;2024-02-21T05:28:48;3.97;;;2.72;;
74799;SDS011;63326;45.088;7.658;2024-02-21T05:31:18;6.88;;;3.70;;
74799;SDS011;63326;45.088;7.658;2024-02-21T05:33:46;11.27;;;4.38;;
74799;SDS011;63326;45.088;7.658;2024-02-21T05:36:13;6.70;;;3.60;;
74799;SDS011;63326;45.088;7.658;2024-02-21T05:38:41;10.68;;;3.45;;
74799;SDS011;63326;45.088;7.658;2024-02-21T05:41:07;6.90;;;4.50;;
74799;SDS011;63326;45.088;7.658;2024-02-21T05:43:38;6.18;;;3.58;;
74799;SDS011;63326;45.088;7.658;2024-02-21T05:48:34;6.60;;;3.40;;
74799;SDS011;63326;45.088;7.658;2024-02-21T05:51:05;6.78;;;3.33;;
74799;SDS011;63326;45.088;7.658;2024-02-21T05:53:33;8.13;;;4.68;;
74799;SDS011;63326;45.088;7.658;2024-02-21T05:56:04;5.70;;;3.00;;
74799;SDS011;63326;45.088;7.658;2024-02-21T05:58:31;9.05;;;3.42;;
74799;SDS011;63326;45.088;7.658;2024-02-21T06:00:58;7.18;;;3.50;;
74799;SDS011;63326;45.088;7.658;2024-02-21T06:03:25;5.65;;;3.35;;
74799;SDS011;63326;45.088;7.658;2024-02-21T06:05:52;5.22;;;3.10;;
74799;SDS011;63326;45.088;7.658;2024-02-21T06:08:21;4.47;;;2.85;;
74799;SDS011;63326;45.088;7.658;2024-02-21T06:10:48;6.18;;;3.20;;
74799;SDS011;63326;45.088;7.658;2024-02-21T06:13:15;4.00;;;2.92;;
74799;SDS011;63326;45.088;7.658;2024-02-21T06:15:44;5.88;;;2.88;;
74799;SDS011;63326;45.088;7.658;2024-02-21T06:18:11;7.20;;;3.65;;
74799;SDS011;63326;45.088;7.658;2024-02-21T06:20:38;7.20;;;3.35;;
74799;SDS011;63326;45.088;7.658;2024-02-21T06:23:06;6.65;;;3.47;;
74799;SDS011;63326;45.088;7.658;2024-02-21T06:25:35;9.18;;;3.72;;
74799;SDS011;63326;45.088;7.658;2024-02-21T06:28:06;6.45;;;3.88;;
74799;SDS011;63326;45.088;7.658;2024-02-21T06:30:34;4.47;;;3.13;;
74799;SDS011;63326;45.088;7.658;2024-02-21T06:33:01;6.50;;;3.58;;
74799;SDS011;63326;45.088;7.658;2024-02-21T06:35:29;8.85;;;3.15;;
74799;SDS011;63326;45.088;7.658;2024-02-21T06:37:56;7.68;;;3.20;;
74799;SDS011;63326;45.088;7.658;2024-02-21T06:40:23;8.73;;;3.47;;
74799;SDS011;63326;45.088;7.658;2024-02-21T06:42:51;7.40;;;3.78;;
74799;SDS011;63326;45.088;7.658;2024-02-21T06:45:18;6.53;;;3.55;;
74799;SDS011;63326;45.088;7.658;2024-02-21T06:47:45;6.75;;;3.53;;
74799;SDS011;63326;45.088;7.658;2024-02-21T06:52:42;6.55;;;3.15;;
74799;SDS011;63326;45.088;7.658;2024-02-21T06:55:12;8.40;;;3.10;;
74799;SDS011;63326;45.088;7.658;2024-02-21T06:57:39;5.47;;;3.72;;
74799;SDS011;63326;45.088;7.658;2024-02-21T07:00:06;5.78;;;3.42;;
74799;SDS011;63326;45.088;7.658;2024-02-21T07:02:36;8.50;;;4.20;;
74799;SDS011;63326;45.088;7.658;2024-02-21T07:05:05;5.72;;;3.70;;
74799;SDS011;63326;45.088;7.658;2024-02-21T07:07:33;10.55;;;4.35;;
74799;SDS011;63326;45.088;7.658;2024-02-21T07:10:02;7.72;;;4.18;;
74799;SDS011;63326;45.088;7.658;2024-02-21T07:12:28;5.03;;;3.00;;
74799;SDS011;63326;45.088;7.658;2024-02-21T07:14:56;6.55;;;3.97;;
74799;SDS011;63326;45.088;7.658;2024-02-21T07:17:25;9.20;;;4.00;;
74799;SDS011;63326;45.088;7.658;2024-02-21T07:19:52;6.38;;;3.17;;
74799;SDS011;63326;45.088;7.658;2024-02-21T07:22:25;7.03;;;4.47;;
74799;SDS011;63326;45.088;7.658;2024-02-21T07:24:51;8.80;;;3.85;;
74799;SDS011;63326;45.088;7.658;2024-02-21T07:27:19;6.82;;;4.32;;
74799;SDS011;63326;45.088;7.658;2024-02-21T07:29:46;10.88;;;4.28;;
74799;SDS011;63326;45.088;7.658;2024-02-21T07:32:17;7.78;;;4.05;;
74799;SDS011;63326;45.088;7.658;2024-02-21T07:34:44;7.00;;;3.28;;
74799;SDS011;63326;45.088;7.658;2024-02-21T07:37:12;6.60;;;3.92;;
74799;SDS011;63326;45.088;7.658;2024-02-21T07:39:39;7.25;;;4.25;;
74799;SDS011;63326;45.088;7.658;2024-02-21T07:42:06;10.43;;;4.75;;
74799;SDS011;63326;45.088;7.658;2024-02-21T07:44:36;8.98;;;3.90;;
74799;SDS011;63326;45.088;7.658;2024-02-21T07:47:03;11.23;;;4.80;;
74799;SDS011;63326;45.088;7.658;2024-02-21T07:49:31;9.50;;;5.15;;
74799;SDS011;63326;45.088;7.658;2024-02-21T07:52:02;9.10;;;4.63;;
74799;SDS011;63326;45.088;7.658;2024-02-21T07:54:30;10.95;;;6.28;;
74799;SDS011;63326;45.088;7.658;2024-02-21T07:57:01;15.93;;;6.30;;
74799;SDS011;63326;45.088;7.658;2024-02-21T07:59:30;7.82;;;5.00;;
74799;SDS011;63326;45.088;7.658;2024-02-21T08:01:57;8.20;;;4.25;;
74799;SDS011;63326;45.088;7.658;2024-02-21T08:04:25;10.15;;;4.97;;
74799;SDS011;63326;45.088;7.658;2024-02-21T08:06:53;11.82;;;4.85;;
74799;SDS011;63326;45.088;7.658;2024-02-21T08:09:28;9.23;;;4.72;;
74799;SDS011;63326;45.088;7.658;2024-02-21T08:14:26;10.45;;;5.15;;
74799;SDS011;63326;45.088;7.658;2024-02-21T08:16:53;8.57;;;4.97;;
74799;SDS011;63326;45.088;7.658;2024-02-21T08:19:22;12.50;;;5.82;;
74799;SDS011;63326;45.088;7.658;2024-02-21T08:21:51;11.32;;;5.40;;
74799;SDS011;63326;45.088;7.658;2024-02-21T08:24:19;12.85;;;5.85;;
74799;SDS011;63326;45.088;7.658;2024-02-21T08:26:49;16.70;;;8.25;;
74799;SDS011;63326;45.088;7.658;2024-02-21T08:29:19;16.75;;;7.95;;
74799;SDS011;63326;45.088;7.658;2024-02-21T08:31:48;18.70;;;9.75;;
74799;SDS011;63326;45.088;7.658;2024-02-21T08:34:15;16.58;;;7.72;;
74799;SDS011;63326;45.088;7.658;2024-02-21T08:36:43;21.83;;;9.57;;
74799;SDS011;63326;45.088;7.658;2024-02-21T08:39:10;21.65;;;11.82;;
74799;SDS011;63326;45.088;7.658;2024-02-21T08:41:38;21.40;;;10.40;;
74799;SDS011;63326;45.088;7.658;2024-02-21T08:44:27;20.90;;;10.68;;
74799;SDS011;63326;45.088;7.658;2024-02-21T08:46:55;23.20;;;11.13;;
74799;SDS011;63326;45.088;7.658;2024-02-21T08:49:24;25.17;;;11.13;;
74799;SDS011;63326;45.088;7.658;2024-02-21T08:52:00;21.17;;;9.60;;
74799;SDS011;63326;45.088;7.658;2024-02-21T08:54:27;22.98;;;10.63;;
74799;SDS011;63326;45.088;7.658;2024-02-21T08:56:55;19.65;;;9.85;;
74799;SDS011;63326;45.088;7.658;2024-02-21T08:59:23;21.48;;;10.35;;
74799;SDS011;63326;45.088;7.658;2024-02-21T09:01:54;26.52;;;11.23;;
74799;SDS011;63326;45.088;7.658;2024-02-21T09:04:22;24.75;;;11.25;;
74799;SDS011;63326;45.088;7.658;2024-02-21T09:06:50;24.58;;;12.73;;
74799;SDS011;63326;45.088;7.658;2024-02-21T09:09:19;26.48;;;12.02;;
74799;SDS011;63326;45.088;7.658;2024-02-21T09:11:46;24.33;;;11.60;;
74799;SDS011;63326;45.088;7.658;2024-02-21T09:14:13;26.85;;;13.95;;
74799;SDS011;63326;45.088;7.658;2024-02-21T09:16:40;28.35;;;11.15;;
74799;SDS011;63326;45.088;7.658;2024-02-21T09:19:08;25.05;;;13.68;;
74799;SDS011;63326;45.088;7.658;2024-02-21T09:21:37;26.63;;;12.32;;
74799;SDS011;63326;45.088;7.658;2024-02-21T09:24:07;22.00;;;12.70;;
74799;SDS011;63326;45.088;7.658;2024-02-21T09:26:35;25.00;;;12.13;;
74799;SDS011;63326;45.088;7.658;2024-02-21T09:29:02;24.95;;;11.35;;
74799;SDS011;63326;45.088;7.658;2024-02-21T09:31:30;24.08;;;12.27;;
74799;SDS011;63326;45.088;7.658;2024-02-21T09:34:00;23.58;;;11.85;;
74799;SDS011;63326;45.088;7.658;2024-02-21T09:36:28;20.10;;;11.30;;
74799;SDS011;63326;45.088;7.658;2024-02-21T09:38:55;22.77;;;11.23;;
74799;SDS011;63326;45.088;7.658;2024-02-21T09:41:26;19.25;;;9.02;;
74799;SDS011;63326;45.088;7.658;2024-02-21T09:43:58;22.65;;;10.50;;
74799;SDS011;63326;45.088;7.658;2024-02-21T09:46:44;23.85;;;11.45;;
74799;SDS011;63326;45.088;7.658;2024-02-21T09:49:36;19.80;;;9.65;;
74799;SDS011;63326;45.088;7.658;2024-02-21T09:52:05;17.75;;;8.18;;
74799;SDS011;63326;45.088;7.658;2024-02-21T09:54:34;21.33;;;10.70;;
74799;SDS011;63326;45.088;7.658;2024-02-21T09:57:03;22.30;;;10.38;;
74799;SDS011;63326;45.088;7.658;2024-02-21T09:59:33;20.13;;;10.32;;
74799;SDS011;63326;45.088;7.658;2024-02-21T10:02:01;26.17;;;11.88;;
74799;SDS011;63326;45.088;7.658;2024-02-21T10:06:58;17.13;;;10.10;;
74799;SDS011;63326;45.088;7.658;2024-02-21T10:09:26;24.25;;;11.57;;
74799;SDS011;63326;45.088;7.658;2024-02-21T10:12:10;30.60;;;14.50;;
74799;SDS011;63326;45.088;7.658;2024-02-21T10:14:40;27.27;;;13.45;;
74799;SDS011;63326;45.088;7.658;2024-02-21T10:17:07;32.00;;;16.45;;
74799;SDS011;63326;45.088;7.658;2024-02-21T10:19:37;34.95;;;15.52;;
74799;SDS011;63326;45.088;7.658;2024-02-21T10:22:07;33.17;;;14.57;;
74799;SDS011;63326;45.088;7.658;2024-02-21T10:24:35;30.80;;;14.88;;
74799;SDS011;63326;45.088;7.658;2024-02-21T10:27:08;31.15;;;15.20;;
74799;SDS011;63326;45.088;7.658;2024-02-21T10:29:39;31.77;;;15.05;;
74799;SDS011;63326;45.088;7.658;2024-02-21T10:32:13;31.88;;;15.75;;
74799;SDS011;63326;45.088;7.658;2024-02-21T10:34:41;35.60;;;17.65;;
74799;SDS011;63326;45.088;7.658;2024-02-21T10:37:10;34.72;;;17.00;;
74799;SDS011;63326;45.088;7.658;2024-02-21T10:39:41;38.22;;;18.15;;
74799;SDS011;63326;45.088;7.658;2024-02-21T10:42:13;32.47;;;17.75;;
74799;SDS011;63326;45.088;7.658;2024-02-21T10:44:44;37.08;;;18.13;;
74799;SDS011;63326;45.088;7.658;2024-02-21T10:47:19;38.95;;;18.88;;
74799;SDS011;63326;45.088;7.658;2024-02-21T10:49:58;40.83;;;19.73;;
74799;SDS011;63326;45.088;7.658;2024-02-21T10:55:16;42.38;;;18.98;;
74799;SDS011;63326;45.088;7.658;2024-02-21T10:57:51;41.17;;;18.95;;
74799;SDS011;63326;45.088;7.658;2024-02-21T11:00:18;44.10;;;20.42;;
74799;SDS011;63326;45.088;7.658;2024-02-21T11:02:46;38.47;;;18.02;;
74799;SDS011;63326;45.088;7.658;2024-02-21T11:05:14;38.38;;;18.92;;
74799;SDS011;63326;45.088;7.658;2024-02-21T11:07:42;37.58;;;18.98;;
74799;SDS011;63326;45.088;7.658;2024-02-21T11:10:36;46.67;;;20.17;;
74799;SDS011;63326;45.088;7.658;2024-02-21T11:13:08;39.63;;;20.33;;
74799;SDS011;63326;45.088;7.658;2024-02-21T11:15:36;41.13;;;22.58;;
74799;SDS011;63326;45.088;7.658;2024-02-21T11:18:05;48.45;;;21.85;;
74799;SDS011;63326;45.088;7.658;2024-02-21T11:20:33;41.80;;;20.13;;
74799;SDS011;63326;45.088;7.658;2024-02-21T11:23:02;45.10;;;21.80;;
74799;SDS011;63326;45.088;7.658;2024-02-21T11:25:40;46.85;;;22.02;;
74799;SDS011;63326;45.088;7.658;2024-02-21T11:28:25;43.17;;;21.05;;
74799;SDS011;63326;45.088;7.658;2024-02-21T11:30:53;49.20;;;24.17;;
74799;SDS011;63326;45.088;7.658;2024-02-21T11:33:35;48.55;;;24.65;;
74799;SDS011;63326;45.088;7.658;2024-02-21T11:36:05;49.28;;;23.63;;
74799;SDS011;63326;45.088;7.658;2024-02-21T11:38:33;50.30;;;25.13;;
74799;SDS011;63326;45.088;7.658;2024-02-21T11:41:02;51.80;;;23.55;;
74799;SDS011;63326;45.088;7.658;2024-02-21T11:43:34;54.95;;;25.60;;
74799;SDS011;63326;45.088;7.658;2024-02-21T11:46:02;45.72;;;24.95;;
74799;SDS011;63326;45.088;7.658;2024-02-21T11:48:31;43.92;;;24.70;;
74799;SDS011;63326;45.088;7.658;2024-02-21T11:53:27;47.67;;;22.08;;
74799;SDS011;63326;45.088;7.658;2024-02-21T11:56:03;49.13;;;22.48;;
74799;SDS011;63326;45.088;7.658;2024-02-21T11:58:31;49.20;;;23.88;;
74799;SDS011;63326;45.088;7.658;2024-02-21T12:00:58;50.58;;;25.67;;
74799;SDS011;63326;45.088;7.658;2024-02-21T12:03:28;50.08;;;24.50;;
74799;SDS011;63326;45.088;7.658;2024-02-21T12:08:25;47.83;;;22.38;;
74799;SDS011;63326;45.088;7.658;2024-02-21T12:10:55;51.05;;;23.85;;
74799;SDS011;63326;45.088;7.658;2024-02-21T12:13:22;49.90;;;21.88;;
74799;SDS011;63326;45.088;7.658;2024-02-21T12:15:49;47.25;;;23.83;;
74799;SDS011;63326;45.088;7.658;2024-02-21T12:18:16;49.03;;;23.08;;
74799;SDS011;63326;45.088;7.658;2024-02-21T12:20:43;48.70;;;25.08;;
74799;SDS011;63326;45.088;7.658;2024-02-21T12:23:13;47.00;;;23.90;;
74799;SDS011;63326;45.088;7.658;2024-02-21T12:25:40;49.60;;;23.98;;
74799;SDS011;63326;45.088;7.658;2024-02-21T12:28:07;44.05;;;24.05;;
74799;SDS011;63326;45.088;7.658;2024-02-21T12:30:36;47.85;;;22.90;;
74799;SDS011;63326;45.088;7.658;2024-02-21T12:33:05;47.80;;;22.48;;
74799;SDS011;63326;45.088;7.658;2024-02-21T12:35:34;47.35;;;21.30;;
74799;SDS011;63326;45.088;7.658;2024-02-21T12:38:02;43.13;;;19.77;;
74799;SDS011;63326;45.088;7.658;2024-02-21T12:40:29;48.60;;;22.23;;
74799;SDS011;63326;45.088;7.658;2024-02-21T12:42:59;49.53;;;24.42;;
74799;SDS011;63326;45.088;7.658;2024-02-21T12:45:29;48.55;;;23.08;;
74799;SDS011;63326;45.088;7.658;2024-02-21T12:47:58;46.70;;;21.85;;
74799;SDS011;63326;45.088;7.658;2024-02-21T12:50:24;43.50;;;20.50;;
74799;SDS011;63326;45.088;7.658;2024-02-21T12:52:54;43.28;;;19.83;;
74799;SDS011;63326;45.088;7.658;2024-02-21T12:55:24;44.28;;;20.52;;
74799;SDS011;63326;45.088;7.658;2024-02-21T12:57:55;40.47;;;18.02;;
74799;SDS011;63326;45.088;7.658;2024-02-21T13:00:23;41.05;;;20.48;;
74799;SDS011;63326;45.088;7.658;2024-02-21T13:02:54;45.40;;;20.58;;
74799;SDS011;63326;45.088;7.658;2024-02-21T13:05:21;35.90;;;19.33;;
74799;SDS011;63326;45.088;7.658;2024-02-21T13:07:50;38.53;;;18.75;;
74799;SDS011;63326;45.088;7.658;2024-02-21T13:10:17;41.28;;;19.70;;
74799;SDS011;63326;45.088;7.658;2024-02-21T13:12:45;48.15;;;23.05;;
74799;SDS011;63326;45.088;7.658;2024-02-21T13:15:12;43.55;;;20.30;;
74799;SDS011;63326;45.088;7.658;2024-02-21T13:17:39;43.88;;;19.25;;
74799;SDS011;63326;45.088;7.658;2024-02-21T13:20:06;43.05;;;20.92;;
74799;SDS011;63326;45.088;7.658;2024-02-21T13:22:36;43.78;;;19.60;;
74799;SDS011;63326;45.088;7.658;2024-02-21T13:25:04;46.63;;;19.95;;
74799;SDS011;63326;45.088;7.658;2024-02-21T13:27:35;45.05;;;21.70;;
74799;SDS011;63326;45.088;7.658;2024-02-21T13:30:03;38.70;;;21.40;;
74799;SDS011;63326;45.088;7.658;2024-02-21T13:32:34;43.08;;;22.98;;
74799;SDS011;63326;45.088;7.658;2024-02-21T13:35:01;43.45;;;21.80;;
74799;SDS011;63326;45.088;7.658;2024-02-21T13:37:32;44.60;;;20.00;;
74799;SDS011;63326;45.088;7.658;2024-02-21T13:39:59;43.08;;;18.65;;
74799;SDS011;63326;45.088;7.658;2024-02-21T13:42:26;43.65;;;19.27;;
74799;SDS011;63326;45.088;7.658;2024-02-21T13:44:54;47.13;;;21.20;;
74799;SDS011;63326;45.088;7.658;2024-02-21T13:47:21;46.00;;;20.77;;
74799;SDS011;63326;45.088;7.658;2024-02-21T13:49:47;36.97;;;18.30;;
74799;SDS011;63326;45.088;7.658;2024-02-21T13:52:16;38.13;;;17.20;;
74799;SDS011;63326;45.088;7.658;2024-02-21T13:54:46;46.25;;;22.05;;
74799;SDS011;63326;45.088;7.658;2024-02-21T13:57:19;43.35;;;19.73;;
74799;SDS011;63326;45.088;7.658;2024-02-21T13:59:59;40.88;;;18.02;;
74799;SDS011;63326;45.088;7.658;2024-02-21T14:02:37;38.88;;;18.70;;
74799;SDS011;63326;45.088;7.658;2024-02-21T14:05:05;44.30;;;20.42;;
74799;SDS011;63326;45.088;7.658;2024-02-21T14:07:32;40.78;;;18.67;;
74799;SDS011;63326;45.088;7.658;2024-02-21T14:10:02;47.30;;;20.40;;
74799;SDS011;63326;45.088;7.658;2024-02-21T14:12:30;33.28;;;15.98;;
74799;SDS011;63326;45.088;7.658;2024-02-21T14:15:10;36.97;;;15.98;;
74799;SDS011;63326;45.088;7.658;2024-02-21T14:17:38;36.13;;;18.27;;
74799;SDS011;63326;45.088;7.658;2024-02-21T14:20:08;39.30;;;19.50;;
74799;SDS011;63326;45.088;7.658;2024-02-21T14:22:43;36.35;;;16.83;;
74799;SDS011;63326;45.088;7.658;2024-02-21T14:25:11;37.42;;;17.48;;
74799;SDS011;63326;45.088;7.658;2024-02-21T14:27:39;30.65;;;16.98;;
74799;SDS011;63326;45.088;7.658;2024-02-21T14:30:07;35.78;;;17.38;;
74799;SDS011;63326;45.088;7.658;2024-02-21T14:32:43;33.70;;;16.02;;
74799;SDS011;63326;45.088;7.658;2024-02-21T14:35:12;34.22;;;15.68;;
74799;SDS011;63326;45.088;7.658;2024-02-21T14:37:39;35.55;;;16.42;;
74799;SDS011;63326;45.088;7.658;2024-02-21T14:40:05;30.88;;;15.20;;
74799;SDS011;63326;45.088;7.658;2024-02-21T14:42:35;32.25;;;13.30;;
74799;SDS011;63326;45.088;7.658;2024-02-21T14:45:04;30.70;;;15.13;;
74799;SDS011;63326;45.088;7.658;2024-02-21T14:47:32;36.75;;;18.02;;
74799;SDS011;63326;45.088;7.658;2024-02-21T14:50:05;35.03;;;16.70;;
74799;SDS011;63326;45.088;7.658;2024-02-21T14:52:35;35.15;;;17.13;;
74799;SDS011;63326;45.088;7.658;2024-02-21T14:55:03;41.30;;;19.05;;
74799;SDS011;63326;45.088;7.658;2024-02-21T14:57:32;39.25;;;16.70;;
74799;SDS011;63326;45.088;7.658;2024-02-21T14:59:59;35.13;;;16.23;;
74799;SDS011;63326;45.088;7.658;2024-02-21T15:02:27;45.30;;;21.13;;
74799;SDS011;63326;45.088;7.658;2024-02-21T15:04:57;38.70;;;17.45;;
74799;SDS011;63326;45.088;7.658;2024-02-21T15:07:24;38.53;;;18.23;;
74799;SDS011;63326;45.088;7.658;2024-02-21T15:09:52;38.85;;;19.05;;
74799;SDS011;63326;45.088;7.658;2024-02-21T15:12:19;32.00;;;17.27;;
74799;SDS011;63326;45.088;7.658;2024-02-21T15:14:50;34.10;;;16.05;;
74799;SDS011;63326;45.088;7.658;2024-02-21T15:17:18;35.67;;;15.38;;